sensor_id;sensor_type;location;lat;lon;timestamp;temperature;humidity
20929;DHT22;21895;47.072;15.132;2023-06-01T00:02:10;16.20;99.90
20929;DHT22;21895;47.072;15.132;2023-06-01T00:04:38;16.20;99.90
20929;DHT22;21895;47.072;15.132;2023-06-01T00:07:09;16.20;99.90
20929;DHT22;21895;47.072;15.132;2023-06-01T00:09:37;16.20;99.90
20929;DHT22;21895;47.072;15.132;2023-06-01T00:12:04;16.20;99.90
20929;DHT22;21895;47.072;15.132;2023-06-01T00:14:33;16.10;99.90
20929;DHT22;21895;47.072;15.132;2023-06-01T00:17:00;16.10;99.90
20929;DHT22;21895;47.072;15.132;2023-06-01T00:19:31;16.10;99.90
20929;DHT22;21895;47.072;15.132;2023-06-01T00:21:58;16.10;99.90
20929;DHT22;21895;47.072;15.132;2023-06-01T00:24:24;16.20;99.90
20929;DHT22;21895;47.072;15.132;2023-06-01T00:26:51;16.20;99.90
20929;DHT22;21895;47.072;15.132;2023-06-01T00:29:18;16.20;99.90
20929;DHT22;21895;47.072;15.132;2023-06-01T00:31:45;16.20;99.90
20929;DHT22;21895;47.072;15.132;2023-06-01T00:34:11;16.10;99.90
20929;DHT22;21895;47.072;15.132;2023-06-01T00:36:38;16.20;99.90
20929;DHT22;21895;47.072;15.132;2023-06-01T00:39:05;16.10;99.90
20929;DHT22;21895;47.072;15.132;2023-06-01T00:41:32;16.20;99.90
20929;DHT22;21895;47.072;15.132;2023-06-01T00:43:59;16.10;99.90
20929;DHT22;21895;47.072;15.132;2023-06-01T00:46:27;16.10;99.90
20929;DHT22;21895;47.072;15.132;2023-06-01T00:48:55;16.10;99.90
20929;DHT22;21895;47.072;15.132;2023-06-01T00:51:24;16.10;99.90
20929;DHT22;21895;47.072;15.132;2023-06-01T00:53:50;16.10;99.90
20929;DHT22;21895;47.072;15.132;2023-06-01T00:56:17;16.00;99.90
20929;DHT22;21895;47.072;15.132;2023-06-01T00:58:44;16.00;99.90
20929;DHT22;21895;47.072;15.132;2023-06-01T01:01:11;16.00;99.90
20929;DHT22;21895;47.072;15.132;2023-06-01T01:03:49;16.10;99.90
20929;DHT22;21895;47.072;15.132;2023-06-01T01:13:26;16.10;99.90
20929;DHT22;21895;47.072;15.132;2023-06-01T01:17:39;16.10;99.90
20929;DHT22;21895;47.072;15.132;2023-06-01T01:20:27;16.30;99.90
20929;DHT22;21895;47.072;15.132;2023-06-01T01:26:21;16.20;99.90
20929;DHT22;21895;47.072;15.132;2023-06-01T01:28:57;16.10;99.90
20929;DHT22;21895;47.072;15.132;2023-06-01T01:31:35;16.20;99.90
20929;DHT22;21895;47.072;15.132;2023-06-01T01:34:04;16.30;99.90
20929;DHT22;21895;47.072;15.132;2023-06-01T01:36:34;16.30;99.90
20929;DHT22;21895;47.072;15.132;2023-06-01T01:39:02;16.20;99.90
20929;DHT22;21895;47.072;15.132;2023-06-01T01:41:29;16.20;99.90
20929;DHT22;21895;47.072;15.132;2023-06-01T01:43:56;16.10;99.90
20929;DHT22;21895;47.072;15.132;2023-06-01T01:46:29;16.10;99.90
20929;DHT22;21895;47.072;15.132;2023-06-01T01:49:28;16.10;99.90
20929;DHT22;21895;47.072;15.132;2023-06-01T01:52:18;16.00;99.90
20929;DHT22;21895;47.072;15.132;2023-06-01T01:54:50;15.90;99.90
20929;DHT22;21895;47.072;15.132;2023-06-01T01:57:18;15.80;99.90
20929;DHT22;21895;47.072;15.132;2023-06-01T01:59:46;15.80;99.90
20929;DHT22;21895;47.072;15.132;2023-06-01T02:02:13;15.80;99.90
20929;DHT22;21895;47.072;15.132;2023-06-01T02:04:44;15.70;99.90
20929;DHT22;21895;47.072;15.132;2023-06-01T02:07:14;15.80;99.90
20929;DHT22;21895;47.072;15.132;2023-06-01T02:09:42;15.80;99.90
20929;DHT22;21895;47.072;15.132;2023-06-01T02:12:08;15.90;99.90
20929;DHT22;21895;47.072;15.132;2023-06-01T02:14:36;15.80;99.90
20929;DHT22;21895;47.072;15.132;2023-06-01T02:17:02;15.80;99.90
20929;DHT22;21895;47.072;15.132;2023-06-01T02:19:29;15.80;99.90
20929;DHT22;21895;47.072;15.132;2023-06-01T02:21:55;15.80;99.90
20929;DHT22;21895;47.072;15.132;2023-06-01T02:24:22;15.80;99.90
20929;DHT22;21895;47.072;15.132;2023-06-01T02:26:49;15.70;99.90
20929;DHT22;21895;47.072;15.132;2023-06-01T02:29:18;15.90;99.90
20929;DHT22;21895;47.072;15.132;2023-06-01T02:31:51;15.90;99.90
20929;DHT22;21895;47.072;15.132;2023-06-01T02:34:18;15.90;99.90
20929;DHT22;21895;47.072;15.132;2023-06-01T02:36:45;16.00;99.90
20929;DHT22;21895;47.072;15.132;2023-06-01T02:39:14;15.90;99.90
20929;DHT22;21895;47.072;15.132;2023-06-01T02:41:41;15.90;99.90
20929;DHT22;21895;47.072;15.132;2023-06-01T02:44:08;16.00;99.90
20929;DHT22;21895;47.072;15.132;2023-06-01T02:46:35;16.10;99.90
20929;DHT22;21895;47.072;15.132;2023-06-01T02:49:01;16.10;99.90
20929;DHT22;21895;47.072;15.132;2023-06-01T02:51:29;16.00;99.90
20929;DHT22;21895;47.072;15.132;2023-06-01T02:53:57;16.00;99.90
20929;DHT22;21895;47.072;15.132;2023-06-01T02:56:24;16.10;99.90
20929;DHT22;21895;47.072;15.132;2023-06-01T02:58:51;16.10;99.90
20929;DHT22;21895;47.072;15.132;2023-06-01T03:01:17;16.00;99.90
20929;DHT22;21895;47.072;15.132;2023-06-01T03:03:46;15.90;99.90
20929;DHT22;21895;47.072;15.132;2023-06-01T03:06:13;15.70;99.90
20929;DHT22;21895;47.072;15.132;2023-06-01T03:08:40;15.60;99.90
20929;DHT22;21895;47.072;15.132;2023-06-01T03:11:06;15.60;99.90
20929;DHT22;21895;47.072;15.132;2023-06-01T03:13:33;15.60;99.90
20929;DHT22;21895;47.072;15.132;2023-06-01T03:15:59;15.60;99.90
20929;DHT22;21895;47.072;15.132;2023-06-01T03:18:26;15.70;99.90
20929;DHT22;21895;47.072;15.132;2023-06-01T03:20:53;15.70;99.90
20929;DHT22;21895;47.072;15.132;2023-06-01T03:23:19;15.70;99.90
20929;DHT22;21895;47.072;15.132;2023-06-01T03:25:46;15.80;99.90
20929;DHT22;21895;47.072;15.132;2023-06-01T03:28:12;15.90;99.90
20929;DHT22;21895;47.072;15.132;2023-06-01T03:30:39;15.90;99.90
20929;DHT22;21895;47.072;15.132;2023-06-01T03:33:05;15.90;99.90
20929;DHT22;21895;47.072;15.132;2023-06-01T03:35:32;15.90;99.90
20929;DHT22;21895;47.072;15.132;2023-06-01T03:37:58;15.80;99.90
20929;DHT22;21895;47.072;15.132;2023-06-01T03:40:25;15.90;99.90
20929;DHT22;21895;47.072;15.132;2023-06-01T03:42:52;15.90;99.90
20929;DHT22;21895;47.072;15.132;2023-06-01T03:45:18;16.00;99.90
20929;DHT22;21895;47.072;15.132;2023-06-01T03:47:45;16.10;99.90
20929;DHT22;21895;47.072;15.132;2023-06-01T03:50:12;16.10;99.90
20929;DHT22;21895;47.072;15.132;2023-06-01T03:52:39;16.30;99.90
20929;DHT22;21895;47.072;15.132;2023-06-01T03:55:06;16.40;99.90
20929;DHT22;21895;47.072;15.132;2023-06-01T03:57:39;16.60;99.90
20929;DHT22;21895;47.072;15.132;2023-06-01T04:00:06;16.60;99.90
20929;DHT22;21895;47.072;15.132;2023-06-01T04:02:58;16.60;99.90
20929;DHT22;21895;47.072;15.132;2023-06-01T04:05:26;16.70;99.90
20929;DHT22;21895;47.072;15.132;2023-06-01T04:07:54;16.90;99.90
20929;DHT22;21895;47.072;15.132;2023-06-01T04:10:21;17.00;99.90
20929;DHT22;21895;47.072;15.132;2023-06-01T04:12:49;17.30;99.90
20929;DHT22;21895;47.072;15.132;2023-06-01T04:15:17;17.20;99.90
20929;DHT22;21895;47.072;15.132;2023-06-01T04:17:46;17.10;99.90
20929;DHT22;21895;47.072;15.132;2023-06-01T04:20:14;17.20;99.90
20929;DHT22;21895;47.072;15.132;2023-06-01T04:22:42;17.10;99.90
20929;DHT22;21895;47.072;15.132;2023-06-01T04:25:11;17.00;99.90
20929;DHT22;21895;47.072;15.132;2023-06-01T04:27:49;17.10;99.90
20929;DHT22;21895;47.072;15.132;2023-06-01T04:30:20;17.30;99.90
20929;DHT22;21895;47.072;15.132;2023-06-01T04:32:48;17.30;99.90
20929;DHT22;21895;47.072;15.132;2023-06-01T04:35:16;17.20;99.90
20929;DHT22;21895;47.072;15.132;2023-06-01T04:37:43;17.20;99.90
20929;DHT22;21895;47.072;15.132;2023-06-01T04:40:11;17.30;99.90
20929;DHT22;21895;47.072;15.132;2023-06-01T04:42:41;17.40;99.90
20929;DHT22;21895;47.072;15.132;2023-06-01T04:45:15;17.40;99.90
20929;DHT22;21895;47.072;15.132;2023-06-01T04:47:42;17.60;99.90
20929;DHT22;21895;47.072;15.132;2023-06-01T04:50:11;17.60;99.90
20929;DHT22;21895;47.072;15.132;2023-06-01T04:52:39;17.60;99.90
20929;DHT22;21895;47.072;15.132;2023-06-01T04:55:08;17.60;99.90
20929;DHT22;21895;47.072;15.132;2023-06-01T04:57:35;17.70;99.90
20929;DHT22;21895;47.072;15.132;2023-06-01T05:00:03;17.90;99.90
20929;DHT22;21895;47.072;15.132;2023-06-01T05:02:34;18.20;99.90
20929;DHT22;21895;47.072;15.132;2023-06-01T05:05:01;18.50;99.90
20929;DHT22;21895;47.072;15.132;2023-06-01T05:07:28;18.90;99.90
20929;DHT22;21895;47.072;15.132;2023-06-01T05:09:54;19.10;99.90
20929;DHT22;21895;47.072;15.132;2023-06-01T05:12:21;19.30;99.90
20929;DHT22;21895;47.072;15.132;2023-06-01T05:14:47;19.50;99.90
20929;DHT22;21895;47.072;15.132;2023-06-01T05:17:14;19.60;99.90
20929;DHT22;21895;47.072;15.132;2023-06-01T05:19:41;19.80;99.90
20929;DHT22;21895;47.072;15.132;2023-06-01T05:22:07;20.00;99.90
20929;DHT22;21895;47.072;15.132;2023-06-01T05:24:34;20.00;99.90
20929;DHT22;21895;47.072;15.132;2023-06-01T05:27:00;20.20;99.90
20929;DHT22;21895;47.072;15.132;2023-06-01T05:29:27;20.30;99.90
20929;DHT22;21895;47.072;15.132;2023-06-01T05:31:53;20.50;99.90
20929;DHT22;21895;47.072;15.132;2023-06-01T05:34:20;20.50;99.90
20929;DHT22;21895;47.072;15.132;2023-06-01T05:36:47;20.70;99.90
20929;DHT22;21895;47.072;15.132;2023-06-01T05:39:14;20.80;99.90
20929;DHT22;21895;47.072;15.132;2023-06-01T05:41:41;20.90;99.90
20929;DHT22;21895;47.072;15.132;2023-06-01T05:44:08;21.00;99.90
20929;DHT22;21895;47.072;15.132;2023-06-01T05:46:34;21.10;99.00
20929;DHT22;21895;47.072;15.132;2023-06-01T05:49:01;21.30;99.30
20929;DHT22;21895;47.072;15.132;2023-06-01T05:51:27;21.40;99.10
20929;DHT22;21895;47.072;15.132;2023-06-01T05:53:54;21.50;98.30
20929;DHT22;21895;47.072;15.132;2023-06-01T05:56:20;21.80;98.80
20929;DHT22;21895;47.072;15.132;2023-06-01T05:58:47;22.00;97.40
20929;DHT22;21895;47.072;15.132;2023-06-01T06:01:19;22.20;97.40
20929;DHT22;21895;47.072;15.132;2023-06-01T06:03:46;22.30;97.10
20929;DHT22;21895;47.072;15.132;2023-06-01T06:06:13;22.30;97.20
20929;DHT22;21895;47.072;15.132;2023-06-01T06:08:39;22.50;98.10
20929;DHT22;21895;47.072;15.132;2023-06-01T06:11:06;22.70;97.60
20929;DHT22;21895;47.072;15.132;2023-06-01T06:13:33;23.10;96.30
20929;DHT22;21895;47.072;15.132;2023-06-01T06:15:59;23.00;97.10
20929;DHT22;21895;47.072;15.132;2023-06-01T06:18:26;23.10;96.10
20929;DHT22;21895;47.072;15.132;2023-06-01T06:20:52;23.10;97.20
20929;DHT22;21895;47.072;15.132;2023-06-01T06:23:19;23.10;96.20
20929;DHT22;21895;47.072;15.132;2023-06-01T06:25:46;23.20;96.30
20929;DHT22;21895;47.072;15.132;2023-06-01T06:28:14;23.20;95.80
20929;DHT22;21895;47.072;15.132;2023-06-01T06:30:41;23.50;96.60
20929;DHT22;21895;47.072;15.132;2023-06-01T06:33:11;23.70;96.00
20929;DHT22;21895;47.072;15.132;2023-06-01T06:35:41;23.80;95.70
20929;DHT22;21895;47.072;15.132;2023-06-01T06:38:09;24.10;95.80
20929;DHT22;21895;47.072;15.132;2023-06-01T06:40:37;24.30;95.50
20929;DHT22;21895;47.072;15.132;2023-06-01T06:43:04;24.40;95.10
20929;DHT22;21895;47.072;15.132;2023-06-01T06:45:30;24.50;95.10
20929;DHT22;21895;47.072;15.132;2023-06-01T06:47:57;24.70;95.40
20929;DHT22;21895;47.072;15.132;2023-06-01T06:50:23;24.80;94.10
20929;DHT22;21895;47.072;15.132;2023-06-01T06:52:50;24.90;94.90
20929;DHT22;21895;47.072;15.132;2023-06-01T06:55:17;25.10;93.30
20929;DHT22;21895;47.072;15.132;2023-06-01T06:57:44;25.00;92.90
20929;DHT22;21895;47.072;15.132;2023-06-01T07:00:11;24.70;92.80
20929;DHT22;21895;47.072;15.132;2023-06-01T07:02:43;24.80;92.10
20929;DHT22;21895;47.072;15.132;2023-06-01T07:05:11;24.80;91.20
20929;DHT22;21895;47.072;15.132;2023-06-01T07:07:38;24.80;91.10
20929;DHT22;21895;47.072;15.132;2023-06-01T07:10:07;24.90;91.40
20929;DHT22;21895;47.072;15.132;2023-06-01T07:12:33;25.00;90.70
20929;DHT22;21895;47.072;15.132;2023-06-01T07:15:01;25.10;90.40
20929;DHT22;21895;47.072;15.132;2023-06-01T07:17:28;25.10;88.70
20929;DHT22;21895;47.072;15.132;2023-06-01T07:19:54;25.30;87.30
20929;DHT22;21895;47.072;15.132;2023-06-01T07:22:21;25.60;86.20
20929;DHT22;21895;47.072;15.132;2023-06-01T07:24:47;25.90;85.60
20929;DHT22;21895;47.072;15.132;2023-06-01T07:27:14;26.20;85.00
20929;DHT22;21895;47.072;15.132;2023-06-01T07:29:40;26.50;84.70
20929;DHT22;21895;47.072;15.132;2023-06-01T07:32:08;26.80;84.40
20929;DHT22;21895;47.072;15.132;2023-06-01T07:34:35;27.10;83.30
20929;DHT22;21895;47.072;15.132;2023-06-01T07:37:02;27.20;82.00
20929;DHT22;21895;47.072;15.132;2023-06-01T07:39:43;27.20;83.00
20929;DHT22;21895;47.072;15.132;2023-06-01T07:42:10;26.80;83.50
20929;DHT22;21895;47.072;15.132;2023-06-01T07:44:36;27.00;82.50
20929;DHT22;21895;47.072;15.132;2023-06-01T07:47:03;27.00;81.90
20929;DHT22;21895;47.072;15.132;2023-06-01T07:49:30;27.10;79.50
20929;DHT22;21895;47.072;15.132;2023-06-01T07:51:57;27.10;79.40
20929;DHT22;21895;47.072;15.132;2023-06-01T07:54:24;26.90;79.30
20929;DHT22;21895;47.072;15.132;2023-06-01T07:56:51;26.90;79.80
20929;DHT22;21895;47.072;15.132;2023-06-01T07:59:17;27.00;81.10
20929;DHT22;21895;47.072;15.132;2023-06-01T08:01:44;26.80;80.00
20929;DHT22;21895;47.072;15.132;2023-06-01T08:04:10;26.90;79.10
20929;DHT22;21895;47.072;15.132;2023-06-01T08:06:37;26.70;79.20
20929;DHT22;21895;47.072;15.132;2023-06-01T08:09:07;26.70;78.90
20929;DHT22;21895;47.072;15.132;2023-06-01T08:11:34;26.70;79.40
20929;DHT22;21895;47.072;15.132;2023-06-01T08:14:01;26.50;79.60
20929;DHT22;21895;47.072;15.132;2023-06-01T08:16:30;26.80;79.50
20929;DHT22;21895;47.072;15.132;2023-06-01T08:18:57;27.00;79.70
20929;DHT22;21895;47.072;15.132;2023-06-01T08:21:25;27.10;79.90
20929;DHT22;21895;47.072;15.132;2023-06-01T08:23:55;27.10;80.50
20929;DHT22;21895;47.072;15.132;2023-06-01T08:26:22;27.00;79.80
20929;DHT22;21895;47.072;15.132;2023-06-01T08:28:49;26.90;79.80
20929;DHT22;21895;47.072;15.132;2023-06-01T08:31:23;26.70;79.10
20929;DHT22;21895;47.072;15.132;2023-06-01T08:33:52;26.80;80.00
20929;DHT22;21895;47.072;15.132;2023-06-01T08:36:19;26.90;80.60
20929;DHT22;21895;47.072;15.132;2023-06-01T08:38:48;27.10;79.40
20929;DHT22;21895;47.072;15.132;2023-06-01T08:47:16;27.20;78.60
20929;DHT22;21895;47.072;15.132;2023-06-01T08:49:45;27.30;77.90
20929;DHT22;21895;47.072;15.132;2023-06-01T08:52:13;27.30;76.60
20929;DHT22;21895;47.072;15.132;2023-06-01T08:54:44;27.40;77.40
20929;DHT22;21895;47.072;15.132;2023-06-01T08:57:11;27.30;74.70
20929;DHT22;21895;47.072;15.132;2023-06-01T08:59:38;27.00;77.40
20929;DHT22;21895;47.072;15.132;2023-06-01T09:02:05;26.90;76.80
20929;DHT22;21895;47.072;15.132;2023-06-01T09:04:33;26.90;75.50
20929;DHT22;21895;47.072;15.132;2023-06-01T09:07:08;26.90;76.30
20929;DHT22;21895;47.072;15.132;2023-06-01T09:09:34;27.00;76.10
20929;DHT22;21895;47.072;15.132;2023-06-01T09:12:27;27.10;74.90
20929;DHT22;21895;47.072;15.132;2023-06-01T09:15:15;27.10;74.60
20929;DHT22;21895;47.072;15.132;2023-06-01T09:17:48;27.00;74.80
20929;DHT22;21895;47.072;15.132;2023-06-01T09:20:29;27.00;77.00
20929;DHT22;21895;47.072;15.132;2023-06-01T09:22:58;27.10;75.30
20929;DHT22;21895;47.072;15.132;2023-06-01T09:25:29;27.10;76.80
20929;DHT22;21895;47.072;15.132;2023-06-01T09:27:58;27.10;75.00
20929;DHT22;21895;47.072;15.132;2023-06-01T09:30:39;27.10;77.40
20929;DHT22;21895;47.072;15.132;2023-06-01T09:33:14;27.20;76.00
20929;DHT22;21895;47.072;15.132;2023-06-01T09:35:48;27.20;76.40
20929;DHT22;21895;47.072;15.132;2023-06-01T09:38:23;27.30;76.20
20929;DHT22;21895;47.072;15.132;2023-06-01T09:41:04;27.20;75.80
20929;DHT22;21895;47.072;15.132;2023-06-01T09:43:34;27.00;74.90
20929;DHT22;21895;47.072;15.132;2023-06-01T09:46:11;26.60;76.80
20929;DHT22;21895;47.072;15.132;2023-06-01T09:48:40;26.70;75.70
20929;DHT22;21895;47.072;15.132;2023-06-01T09:51:24;26.60;76.60
20929;DHT22;21895;47.072;15.132;2023-06-01T09:53:55;26.90;76.60
20929;DHT22;21895;47.072;15.132;2023-06-01T09:56:24;26.80;75.00
20929;DHT22;21895;47.072;15.132;2023-06-01T09:58:58;26.80;75.80
20929;DHT22;21895;47.072;15.132;2023-06-01T10:01:29;26.80;78.50
20929;DHT22;21895;47.072;15.132;2023-06-01T10:03:58;26.80;77.70
20929;DHT22;21895;47.072;15.132;2023-06-01T10:06:27;27.00;76.70
20929;DHT22;21895;47.072;15.132;2023-06-01T10:08:57;27.20;74.90
20929;DHT22;21895;47.072;15.132;2023-06-01T10:11:25;27.10;75.20
20929;DHT22;21895;47.072;15.132;2023-06-01T10:13:56;27.00;77.00
20929;DHT22;21895;47.072;15.132;2023-06-01T10:16:23;26.90;77.10
20929;DHT22;21895;47.072;15.132;2023-06-01T10:18:50;27.00;76.50
20929;DHT22;21895;47.072;15.132;2023-06-01T10:21:18;26.60;76.80
20929;DHT22;21895;47.072;15.132;2023-06-01T10:23:45;26.60;77.70
20929;DHT22;21895;47.072;15.132;2023-06-01T10:26:13;26.80;77.70
20929;DHT22;21895;47.072;15.132;2023-06-01T10:28:45;27.00;80.00
20929;DHT22;21895;47.072;15.132;2023-06-01T10:31:35;27.00;77.10
20929;DHT22;21895;47.072;15.132;2023-06-01T10:34:06;27.10;77.30
20929;DHT22;21895;47.072;15.132;2023-06-01T10:37:10;27.00;76.90
20929;DHT22;21895;47.072;15.132;2023-06-01T10:39:38;26.90;77.90
20929;DHT22;21895;47.072;15.132;2023-06-01T10:42:39;26.80;77.20
20929;DHT22;21895;47.072;15.132;2023-06-01T10:45:06;26.30;77.00
20929;DHT22;21895;47.072;15.132;2023-06-01T10:47:54;26.10;78.60
20929;DHT22;21895;47.072;15.132;2023-06-01T10:50:21;25.90;77.40
20929;DHT22;21895;47.072;15.132;2023-06-01T10:52:47;25.70;76.70
20929;DHT22;21895;47.072;15.132;2023-06-01T10:55:25;25.70;78.80
20929;DHT22;21895;47.072;15.132;2023-06-01T10:58:19;25.70;78.20
20929;DHT22;21895;47.072;15.132;2023-06-01T11:00:52;25.60;78.60
20929;DHT22;21895;47.072;15.132;2023-06-01T11:03:46;25.70;78.40
20929;DHT22;21895;47.072;15.132;2023-06-01T11:06:28;25.50;80.70
20929;DHT22;21895;47.072;15.132;2023-06-01T11:08:59;25.10;83.90
20929;DHT22;21895;47.072;15.132;2023-06-01T11:12:07;24.90;84.10
20929;DHT22;21895;47.072;15.132;2023-06-01T11:14:35;24.80;85.00
20929;DHT22;21895;47.072;15.132;2023-06-01T11:17:25;24.90;86.10
20929;DHT22;21895;47.072;15.132;2023-06-01T11:19:59;24.80;84.90
20929;DHT22;21895;47.072;15.132;2023-06-01T11:22:34;24.80;85.00
20929;DHT22;21895;47.072;15.132;2023-06-01T11:25:05;24.90;84.70
20929;DHT22;21895;47.072;15.132;2023-06-01T11:27:35;25.00;84.60
20929;DHT22;21895;47.072;15.132;2023-06-01T11:30:02;25.00;85.60
20929;DHT22;21895;47.072;15.132;2023-06-01T11:32:31;24.90;85.50
20929;DHT22;21895;47.072;15.132;2023-06-01T11:34:59;24.60;86.10
20929;DHT22;21895;47.072;15.132;2023-06-01T11:37:25;24.50;88.20
20929;DHT22;21895;47.072;15.132;2023-06-01T11:40:05;24.40;90.30
20929;DHT22;21895;47.072;15.132;2023-06-01T11:42:36;24.30;90.40
20929;DHT22;21895;47.072;15.132;2023-06-01T11:45:03;24.30;90.40
20929;DHT22;21895;47.072;15.132;2023-06-01T11:47:30;24.30;90.40
20929;DHT22;21895;47.072;15.132;2023-06-01T11:49:58;24.30;90.00
20929;DHT22;21895;47.072;15.132;2023-06-01T11:52:24;24.30;90.00
20929;DHT22;21895;47.072;15.132;2023-06-01T11:54:51;24.30;89.80
20929;DHT22;21895;47.072;15.132;2023-06-01T11:57:18;24.20;90.00
20929;DHT22;21895;47.072;15.132;2023-06-01T11:59:49;24.00;90.30
20929;DHT22;21895;47.072;15.132;2023-06-01T12:02:23;23.80;91.00
20929;DHT22;21895;47.072;15.132;2023-06-01T12:05:03;23.90;91.40
20929;DHT22;21895;47.072;15.132;2023-06-01T12:07:48;24.20;90.40
20929;DHT22;21895;47.072;15.132;2023-06-01T12:10:18;24.30;89.80
20929;DHT22;21895;47.072;15.132;2023-06-01T12:12:46;24.40;88.80
20929;DHT22;21895;47.072;15.132;2023-06-01T12:15:17;24.30;88.80
20929;DHT22;21895;47.072;15.132;2023-06-01T12:17:49;24.50;90.00
20929;DHT22;21895;47.072;15.132;2023-06-01T12:20:33;24.70;89.50
20929;DHT22;21895;47.072;15.132;2023-06-01T12:23:20;24.90;87.90
20929;DHT22;21895;47.072;15.132;2023-06-01T12:25:56;25.00;87.40
20929;DHT22;21895;47.072;15.132;2023-06-01T12:28:25;25.10;88.00
20929;DHT22;21895;47.072;15.132;2023-06-01T12:31:14;25.20;87.20
20929;DHT22;21895;47.072;15.132;2023-06-01T12:33:42;25.60;86.60
20929;DHT22;21895;47.072;15.132;2023-06-01T12:36:34;25.50;84.90
20929;DHT22;21895;47.072;15.132;2023-06-01T12:39:03;25.90;83.90
20929;DHT22;21895;47.072;15.132;2023-06-01T12:41:30;26.10;83.10
20929;DHT22;21895;47.072;15.132;2023-06-01T12:43:58;26.40;82.00
20929;DHT22;21895;47.072;15.132;2023-06-01T12:46:29;26.50;79.30
20929;DHT22;21895;47.072;15.132;2023-06-01T12:49:15;26.60;78.60
20929;DHT22;21895;47.072;15.132;2023-06-01T12:51:46;26.70;78.80
20929;DHT22;21895;47.072;15.132;2023-06-01T12:54:13;26.40;79.00
20929;DHT22;21895;47.072;15.132;2023-06-01T12:56:40;26.20;78.20
20929;DHT22;21895;47.072;15.132;2023-06-01T12:59:06;25.80;78.90
20929;DHT22;21895;47.072;15.132;2023-06-01T13:01:33;25.80;81.60
20929;DHT22;21895;47.072;15.132;2023-06-01T13:04:00;25.70;80.70
20929;DHT22;21895;47.072;15.132;2023-06-01T13:06:29;25.60;81.90
20929;DHT22;21895;47.072;15.132;2023-06-01T13:08:56;25.70;82.70
20929;DHT22;21895;47.072;15.132;2023-06-01T13:11:23;25.60;82.10
20929;DHT22;21895;47.072;15.132;2023-06-01T13:13:50;25.40;82.50
20929;DHT22;21895;47.072;15.132;2023-06-01T13:16:17;25.40;83.90
20929;DHT22;21895;47.072;15.132;2023-06-01T13:18:44;25.50;83.30
20929;DHT22;21895;47.072;15.132;2023-06-01T13:21:11;25.70;83.10
20929;DHT22;21895;47.072;15.132;2023-06-01T13:23:37;26.00;82.60
20929;DHT22;21895;47.072;15.132;2023-06-01T13:26:04;26.10;81.30
20929;DHT22;21895;47.072;15.132;2023-06-01T13:28:31;26.20;82.50
20929;DHT22;21895;47.072;15.132;2023-06-01T13:30:58;26.20;81.00
20929;DHT22;21895;47.072;15.132;2023-06-01T13:33:24;26.30;80.60
20929;DHT22;21895;47.072;15.132;2023-06-01T13:35:51;26.20;80.00
20929;DHT22;21895;47.072;15.132;2023-06-01T13:38:17;26.20;79.40
20929;DHT22;21895;47.072;15.132;2023-06-01T13:40:44;26.20;78.70
20929;DHT22;21895;47.072;15.132;2023-06-01T13:43:11;26.20;79.30
20929;DHT22;21895;47.072;15.132;2023-06-01T13:45:38;26.20;80.80
20929;DHT22;21895;47.072;15.132;2023-06-01T13:48:04;26.30;81.90
20929;DHT22;21895;47.072;15.132;2023-06-01T13:50:31;26.30;82.10
20929;DHT22;21895;47.072;15.132;2023-06-01T13:52:57;26.30;80.30
20929;DHT22;21895;47.072;15.132;2023-06-01T13:55:24;26.20;78.60
20929;DHT22;21895;47.072;15.132;2023-06-01T13:57:52;26.00;79.00
20929;DHT22;21895;47.072;15.132;2023-06-01T14:00:18;26.00;79.80
20929;DHT22;21895;47.072;15.132;2023-06-01T14:02:48;26.20;77.30
20929;DHT22;21895;47.072;15.132;2023-06-01T14:05:14;26.10;79.40
20929;DHT22;21895;47.072;15.132;2023-06-01T14:07:49;26.00;79.50
20929;DHT22;21895;47.072;15.132;2023-06-01T14:10:15;25.80;79.30
20929;DHT22;21895;47.072;15.132;2023-06-01T14:12:43;25.70;81.10
20929;DHT22;21895;47.072;15.132;2023-06-01T14:15:09;25.40;81.90
20929;DHT22;21895;47.072;15.132;2023-06-01T14:17:36;25.30;81.50
20929;DHT22;21895;47.072;15.132;2023-06-01T14:20:03;25.30;81.40
20929;DHT22;21895;47.072;15.132;2023-06-01T14:22:30;25.40;81.60
20929;DHT22;21895;47.072;15.132;2023-06-01T14:24:57;25.40;82.10
20929;DHT22;21895;47.072;15.132;2023-06-01T14:27:24;25.30;82.90
20929;DHT22;21895;47.072;15.132;2023-06-01T14:29:50;25.20;82.70
20929;DHT22;21895;47.072;15.132;2023-06-01T14:32:17;25.20;81.90
20929;DHT22;21895;47.072;15.132;2023-06-01T14:34:44;25.10;83.20
20929;DHT22;21895;47.072;15.132;2023-06-01T14:37:10;25.20;82.90
20929;DHT22;21895;47.072;15.132;2023-06-01T14:39:38;25.20;82.10
20929;DHT22;21895;47.072;15.132;2023-06-01T14:42:04;25.30;83.00
20929;DHT22;21895;47.072;15.132;2023-06-01T14:44:32;25.30;84.00
20929;DHT22;21895;47.072;15.132;2023-06-01T14:46:59;25.20;84.10
20929;DHT22;21895;47.072;15.132;2023-06-01T14:49:26;25.20;82.40
20929;DHT22;21895;47.072;15.132;2023-06-01T14:52:08;25.30;81.50
20929;DHT22;21895;47.072;15.132;2023-06-01T14:54:35;25.40;83.40
20929;DHT22;21895;47.072;15.132;2023-06-01T14:57:04;25.70;82.60
20929;DHT22;21895;47.072;15.132;2023-06-01T14:59:31;25.80;83.70
20929;DHT22;21895;47.072;15.132;2023-06-01T15:01:59;26.00;84.40
20929;DHT22;21895;47.072;15.132;2023-06-01T15:04:27;26.10;82.10
20929;DHT22;21895;47.072;15.132;2023-06-01T15:06:54;26.00;80.70
20929;DHT22;21895;47.072;15.132;2023-06-01T15:09:20;26.00;81.80
20929;DHT22;21895;47.072;15.132;2023-06-01T15:11:47;26.00;81.30
20929;DHT22;21895;47.072;15.132;2023-06-01T15:14:14;26.10;80.10
20929;DHT22;21895;47.072;15.132;2023-06-01T15:16:41;26.10;78.90
20929;DHT22;21895;47.072;15.132;2023-06-01T15:19:08;25.80;81.40
20929;DHT22;21895;47.072;15.132;2023-06-01T15:21:35;25.40;81.40
20929;DHT22;21895;47.072;15.132;2023-06-01T15:24:02;25.20;82.70
20929;DHT22;21895;47.072;15.132;2023-06-01T15:26:29;25.00;81.60
20929;DHT22;21895;47.072;15.132;2023-06-01T15:28:55;24.90;81.90
20929;DHT22;21895;47.072;15.132;2023-06-01T15:31:22;24.80;83.00
20929;DHT22;21895;47.072;15.132;2023-06-01T15:33:49;24.80;83.60
20929;DHT22;21895;47.072;15.132;2023-06-01T15:36:15;24.80;83.80
20929;DHT22;21895;47.072;15.132;2023-06-01T15:38:42;24.80;83.20
20929;DHT22;21895;47.072;15.132;2023-06-01T15:41:09;24.80;84.80
20929;DHT22;21895;47.072;15.132;2023-06-01T15:43:36;24.80;87.30
20929;DHT22;21895;47.072;15.132;2023-06-01T15:46:03;24.80;88.40
20929;DHT22;21895;47.072;15.132;2023-06-01T15:48:31;24.70;89.10